Albion, Oklahoma
Current Conditions -  °F | °C
As of 8:55 AM on Monday 24 Nov 2014 (Local Time) from KRKR Reporting Station
Clear Clear  
Wind Chill: 39°   Ceiling: Unl
Heat Index: 44°   Visibility: 10mi
Dew Point: 34°   Wind: 9mph
Humidity: 69%   Direction: 180°S
Pressure: 29.93"   Gusts: NA
Location:  34.66°N, 95.1°W
Report Text: KRKR 241455Z AUTO 18008KT 10SM CLR 07/01 A2993 RMK AO2 T00650012
Loading
Personal Weather Stations






























Interactive Weather Map New forecast layout! Learn more

10-Day Weather Forecast

Advertisements
Track Severe Weather on mobile